Time;durP1;ratioP1;P1;durP2;ratioP2;P2;SDS_P1;SDS_P2;PMS_P1;PMS_P2;Temp;Humidity;BMP_temperature;BMP_pressure;BME280_temperature;BME280_humidity;BME280_pressure;Samples;Min_cycle;Max_cycle;Signal;HPM_P1;HPM_P2
2021/10/29 00:01:39;;;;;;;31.38;16.95;;;;;;;1.94;67.96;94312.31;5112510;28;20377;-42
2021/10/29 00:04:04;;;;;;;31.10;17.88;;;;;;;1.88;68.49;94306.06;5111193;28;20389;-43
2021/10/29 00:06:30;;;;;;;33.65;17.25;;;;;;;1.70;68.80;94314.41;5112326;28;20023;-42
2021/10/29 00:08:56;;;;;;;23.40;13.20;;;;;;;1.77;68.49;94303.91;5112259;28;20073;-45
2021/10/29 00:11:22;;;;;;;26.38;14.32;;;;;;;1.70;68.45;94287.19;5111863;28;20482;-44
2021/10/29 00:13:47;;;;;;;25.67;16.10;;;;;;;1.56;68.94;94304.31;5111873;28;20027;-44
2021/10/29 00:16:13;;;;;;;22.20;14.75;;;;;;;1.50;69.31;94299.50;5111866;28;20027;-46
2021/10/29 00:18:38;;;;;;;23.30;15.13;;;;;;;1.77;69.20;94301.19;5106550;28;20028;-43
2021/10/29 00:21:03;;;;;;;28.10;15.25;;;;;;;1.57;68.25;94303.06;5100730;28;20505;-46
2021/10/29 00:23:31;;;;;;;24.92;15.00;;;;;;;1.54;69.02;94291.91;5100418;28;20026;-45
2021/10/29 00:25:57;;;;;;;24.73;16.38;;;;;;;1.57;68.80;94279.31;5102293;28;20042;-45
2021/10/29 00:28:22;;;;;;;24.90;14.77;;;;;;;1.77;67.87;94281.38;5100807;28;20072;-46
2021/10/29 00:30:48;;;;;;;23.88;14.80;;;;;;;1.72;68.18;94290.19;5100914;28;20435;-45
2021/10/29 00:33:15;;;;;;;20.02;13.75;;;;;;;1.57;68.99;94289.47;5102258;28;20485;-44
2021/10/29 00:35:41;;;;;;;27.38;15.05;;;;;;;1.48;68.88;94287.59;5100482;28;20386;-45
2021/10/29 00:38:06;;;;;;;29.13;14.18;;;;;;;1.48;69.20;94282.91;5101029;28;20042;-44
2021/10/29 00:40:32;;;;;;;20.50;13.15;;;;;;;1.46;69.04;94285.34;5101929;28;20016;-44
2021/10/29 00:42:58;;;;;;;26.40;14.43;;;;;;;1.25;69.48;94288.44;5099832;28;20070;-47
2021/10/29 00:45:23;;;;;;;28.17;14.52;;;;;;;1.34;69.03;94280.19;5101401;28;20037;-44
2021/10/29 00:47:51;;;;;;;25.83;15.15;;;;;;;1.39;68.98;94277.53;5100845;28;20107;-44
2021/10/29 00:50:16;;;;;;;17.65;11.70;;;;;;;1.19;68.91;94282.16;5099418;28;20023;-44
2021/10/29 00:52:42;;;;;;;16.90;9.82;;;;;;;1.27;68.79;94277.84;5101126;28;20015;-45
2021/10/29 00:55:08;;;;;;;18.83;10.20;;;;;;;1.37;68.10;94263.66;5100911;28;20024;-44
2021/10/29 00:57:34;;;;;;;12.88;8.88;;;;;;;1.37;67.96;94277.28;5098309;28;20504;-45
2021/10/29 00:59:59;;;;;;;26.38;12.27;;;;;;;1.19;68.37;94277.44;5098820;27;20012;-45
2021/10/29 01:02:26;;;;;;;38.45;22.00;;;;;;;1.11;68.71;94287.19;5100912;28;20495;-46
2021/10/29 01:04:51;;;;;;;66.50;34.78;;;;;;;1.26;69.15;94279.78;5101158;28;20020;-44
2021/10/29 01:07:17;;;;;;;68.97;36.60;;;;;;;1.10;69.81;94283.00;5098014;28;20032;-46
2021/10/29 01:09:43;;;;;;;74.82;41.03;;;;;;;1.02;69.53;94278.38;5095516;27;20055;-44
2021/10/29 01:12:08;;;;;;;66.32;35.17;;;;;;;1.00;70.21;94275.34;5090600;28;20058;-46
2021/10/29 01:14:34;;;;;;;63.00;33.60;;;;;;;0.99;70.43;94274.63;5090845;28;20181;-45
2021/10/29 01:17:00;;;;;;;62.97;32.17;;;;;;;1.08;70.57;94273.78;5091508;28;20036;-46
2021/10/29 01:19:31;;;;;;;52.75;27.80;;;;;;;0.91;70.90;94272.75;5110214;28;20097;-44
2021/10/29 01:21:57;;;;;;;50.90;27.17;;;;;;;0.78;71.45;94270.25;5111095;28;20024;-44
2021/10/29 01:24:22;;;;;;;41.00;21.50;;;;;;;0.87;71.10;94262.03;5111081;28;20409;-43
2021/10/29 01:26:47;;;;;;;28.05;16.25;;;;;;;0.94;70.84;94261.69;5110701;28;20027;-45
2021/10/29 01:29:13;;;;;;;28.52;14.88;;;;;;;0.68;71.27;94238.94;5106218;28;20022;-44
2021/10/29 01:31:38;;;;;;;29.48;15.65;;;;;;;0.67;71.58;94257.22;5104714;28;20020;-46
2021/10/29 01:34:04;;;;;;;27.60;15.50;;;;;;;0.74;71.06;94261.53;5100060;28;20024;-47
2021/10/29 01:36:29;;;;;;;25.70;13.75;;;;;;;0.84;71.00;94260.25;5090567;28;20024;-45
2021/10/29 01:38:55;;;;;;;26.55;15.52;;;;;;;0.95;70.77;94265.91;5090651;28;20467;-45
2021/10/29 01:41:20;;;;;;;30.52;17.20;;;;;;;1.04;70.01;94259.63;5090513;28;20024;-44
2021/10/29 01:43:48;;;;;;;29.05;17.33;;;;;;;0.99;71.13;94250.16;5090541;28;20081;-44
2021/10/29 01:46:14;;;;;;;41.00;20.60;;;;;;;0.75;72.38;94260.34;5090234;28;20054;-46
2021/10/29 01:48:48;;;;;;;55.17;26.40;;;;;;;0.94;71.29;94256.22;5090146;28;20026;-43
2021/10/29 01:51:14;;;;;;;61.50;27.30;;;;;;;1.07;71.75;94248.56;5090183;28;20063;-45
2021/10/29 01:53:40;;;;;;;62.08;24.60;;;;;;;1.15;71.12;94255.13;5090075;28;20047;-45
2021/10/29 01:56:05;;;;;;;58.63;25.38;;;;;;;0.83;72.47;94219.94;5090129;28;20743;-45
2021/10/29 01:58:31;;;;;;;29.92;16.40;;;;;;;1.20;70.81;94251.75;5090422;28;20020;-44
2021/10/29 02:00:58;;;;;;;31.73;16.95;;;;;;;0.97;70.78;94219.22;5092928;28;20039;-43
2021/10/29 02:03:23;;;;;;;34.40;16.73;;;;;;;1.18;70.50;94253.44;5094268;28;20047;-46
2021/10/29 02:05:49;;;;;;;35.40;19.02;;;;;;;1.32;70.68;94252.69;5094279;28;20074;-44
2021/10/29 02:08:17;;;;;;;39.08;21.00;;;;;;;1.19;70.67;94246.78;5094064;28;20020;-47
2021/10/29 02:10:43;;;;;;;41.30;23.00;;;;;;;1.18;70.62;94246.03;5094030;28;20492;-45
2021/10/29 02:13:08;;;;;;;36.13;18.90;;;;;;;1.07;70.62;94240.41;5093904;28;20035;-46
2021/10/29 02:15:34;;;;;;;49.00;21.92;;;;;;;0.98;71.32;94243.22;5093867;28;20082;-43
2021/10/29 02:17:59;;;;;;;46.38;20.95;;;;;;;1.21;71.56;94245.09;5099149;28;20027;-44
2021/10/29 02:20:24;;;;;;;43.33;19.77;;;;;;;1.07;71.96;94248.56;5114120;28;20456;-45
2021/10/29 02:22:50;;;;;;;40.17;21.20;;;;;;;1.17;71.04;94252.69;5114089;28;20027;-45
2021/10/29 02:25:15;;;;;;;48.10;22.13;;;;;;;1.27;71.45;94245.94;5114382;28;20019;-44
2021/10/29 02:27:41;;;;;;;42.03;20.13;;;;;;;1.31;70.80;94251.94;5114344;28;20027;-45
2021/10/29 02:30:07;;;;;;;39.38;21.92;;;;;;;1.17;70.48;94251.94;5114280;28;20101;-46
2021/10/29 02:32:32;;;;;;;39.40;19.48;;;;;;;1.13;70.42;94259.53;5114123;27;20036;-45
2021/10/29 02:34:58;;;;;;;35.92;18.75;;;;;;;1.19;70.10;94255.69;5114221;28;20537;-44
2021/10/29 02:37:23;;;;;;;43.03;20.08;;;;;;;0.81;71.11;94252.28;5114195;28;20046;-44
2021/10/29 02:39:49;;;;;;;37.20;18.55;;;;;;;0.79;70.91;94255.47;5114134;28;20500;-44
2021/10/29 02:42:15;;;;;;;41.83;19.92;;;;;;;0.75;71.15;94254.91;5113804;28;20036;-44
2021/10/29 02:44:42;;;;;;;38.30;19.48;;;;;;;0.82;70.32;94245.63;5113785;28;20030;-46
2021/10/29 02:47:08;;;;;;;34.40;16.73;;;;;;;0.59;70.45;94252.59;5113991;28;20477;-44
2021/10/29 02:49:33;;;;;;;35.95;18.83;;;;;;;0.53;71.00;94246.31;5113638;28;20112;-44
2021/10/29 02:51:59;;;;;;;36.65;18.27;;;;;;;0.52;71.20;94253.72;5113769;28;20054;-44
2021/10/29 02:54:24;;;;;;;42.53;18.40;;;;;;;0.34;70.95;94255.81;5113371;28;20023;-45
2021/10/29 02:56:49;;;;;;;46.83;25.23;;;;;;;0.18;71.37;94253.50;5113492;28;20034;-43
2021/10/29 02:59:15;;;;;;;45.90;22.23;;;;;;;0.17;72.01;94241.16;5113455;28;20059;-44
2021/10/29 03:01:40;;;;;;;49.05;25.98;;;;;;;0.17;72.53;94244.63;5113340;28;20030;-43
2021/10/29 03:04:06;;;;;;;53.95;26.80;;;;;;;0.07;72.22;94248.59;5113686;27;20023;-43
2021/10/29 03:06:31;;;;;;;59.15;29.25;;;;;;;-0.03;72.99;94247.16;5113279;28;20490;-44
2021/10/29 03:08:57;;;;;;;61.67;31.05;;;;;;;0.10;72.76;94249.63;5113255;27;20023;-43
2021/10/29 03:11:22;;;;;;;136.90;59.05;;;;;;;-0.08;73.02;94243.09;5112150;28;20031;-44
2021/10/29 03:13:48;;;;;;;78.57;36.80;;;;;;;0.10;72.62;94238.78;5113336;28;20027;-44
2021/10/29 03:16:13;;;;;;;89.65;41.70;;;;;;;0.06;73.20;94244.38;5113453;28;20027;-45
2021/10/29 03:18:39;;;;;;;78.05;43.92;;;;;;;0.14;73.43;94250.97;5112921;28;20080;-45
2021/10/29 03:21:04;;;;;;;80.13;45.50;;;;;;;0.20;72.98;94248.34;5112889;28;20047;-45
2021/10/29 03:23:30;;;;;;;77.15;37.90;;;;;;;0.21;73.18;94241.72;5113227;28;20031;-45
2021/10/29 03:25:56;;;;;;;56.22;32.80;;;;;;;0.32;73.02;94228.38;5113186;28;20031;-43
2021/10/29 03:28:21;;;;;;;46.75;28.00;;;;;;;0.31;72.34;94243.16;5113189;27;20489;-44
2021/10/29 03:30:47;;;;;;;43.58;26.13;;;;;;;0.31;72.02;94237.72;5112717;28;20417;-44
2021/10/29 03:33:13;;;;;;;51.08;29.88;;;;;;;0.40;71.39;94237.66;5113086;28;20054;-44
2021/10/29 03:35:38;;;;;;;46.53;25.50;;;;;;;0.31;70.87;94243.16;5113001;27;20028;-43
2021/10/29 03:38:14;;;;;;;51.25;25.35;;;;;;;0.23;71.18;94236.56;5113035;28;20028;-45
2021/10/29 03:43:46;;;;;;;61.70;31.38;;;;;;;0.45;70.31;94243.22;5103303;28;20406;-43
2021/10/29 03:53:44;;;;;;;69.78;33.85;;;;;;;0.11;70.22;94243.00;5112424;28;20032;-43
2021/10/29 03:56:17;;;;;;;89.97;39.53;;;;;;;-0.08;70.20;94245.06;5112348;28;20031;-43
2021/10/29 03:58:44;;;;;;;125.10;60.90;;;;;;;-0.17;71.78;94247.81;5112661;28;20023;-45
2021/10/29 04:01:10;;;;;;;101.00;52.25;;;;;;;-0.14;71.62;94244.94;5112479;28;20096;-45
2021/10/29 04:03:35;;;;;;;81.53;38.22;;;;;;;-0.16;71.29;94249.31;5111859;28;20492;-46
2021/10/29 04:06:01;;;;;;;68.15;31.17;;;;;;;-0.21;71.50;94245.28;5111663;28;20027;-45
2021/10/29 04:20:39;;;;;;;69.95;36.03;;;;;;;0.58;68.27;94245.69;5128324;27;20630;-40
2021/10/29 04:23:05;;;;;;;50.83;25.95;;;;;;;0.19;68.77;94252.28;5127107;27;20114;-39
2021/10/29 04:25:31;;;;;;;61.97;32.50;;;;;;;0.25;69.54;94242.28;5127966;27;20016;-39
2021/10/29 04:28:05;;;;;;;61.47;32.17;;;;;;;0.02;69.34;94238.38;5107922;28;20027;-40
2021/10/29 04:30:31;;;;;;;57.30;30.23;;;;;;;-0.06;70.45;94237.97;5107673;28;20024;-39
2021/10/29 04:32:57;;;;;;;55.42;28.08;;;;;;;0.08;70.62;94252.06;5107678;28;20030;-40
2021/10/29 04:35:24;;;;;;;56.55;26.80;;;;;;;0.18;69.30;94248.06;5107602;28;20042;-39
2021/10/29 04:37:49;;;;;;;75.80;31.48;;;;;;;0.20;70.14;94249.09;5107264;28;20514;-37
2021/10/29 04:40:15;;;;;;;87.63;34.95;;;;;;;0.15;69.66;94254.44;5107240;28;20027;-37
2021/10/29 04:42:41;;;;;;;71.75;30.90;;;;;;;0.04;70.07;94248.78;5107101;28;20023;-38
2021/10/29 04:45:07;;;;;;;72.63;31.48;;;;;;;-0.07;70.78;94247.31;5107175;28;20047;-38
2021/10/29 04:47:33;;;;;;;59.58;27.33;;;;;;;-0.09;70.34;94249.00;5107040;28;20522;-37
2021/10/29 04:50:00;;;;;;;54.38;27.58;;;;;;;-0.12;70.51;94245.22;5107161;28;20027;-37
2021/10/29 04:52:26;;;;;;;57.67;27.55;;;;;;;-0.33;70.77;94246.25;5106778;28;20024;-38
2021/10/29 04:54:51;;;;;;;58.47;28.60;;;;;;;-0.58;71.57;94249.34;5106955;28;20045;-37
2021/10/29 04:57:17;;;;;;;85.60;41.67;;;;;;;-0.80;71.60;94252.28;5106508;28;20019;-37
2021/10/29 04:59:42;;;;;;;70.30;36.58;;;;;;;-0.71;71.94;94258.91;5106511;28;20020;-38
2021/10/29 05:02:08;;;;;;;68.57;36.03;;;;;;;-0.57;71.48;94255.53;5106000;28;20026;-37
2021/10/29 05:04:33;;;;;;;68.20;36.25;;;;;;;-0.52;71.12;94255.66;5105796;28;20097;-37
2021/10/29 05:06:59;;;;;;;56.33;30.50;;;;;;;-0.41;70.86;94260.59;5105974;28;20050;-38
2021/10/29 05:09:24;;;;;;;60.72;32.05;;;;;;;-0.48;70.90;94260.94;5106672;28;20458;-40
2021/10/29 05:11:49;;;;;;;67.93;34.85;;;;;;;-0.48;70.91;94256.25;5106571;28;20023;-40
2021/10/29 05:14:15;;;;;;;65.18;31.75;;;;;;;-0.53;70.54;94256.88;5106890;28;20053;-40
2021/10/29 05:16:40;;;;;;;81.28;35.80;;;;;;;-0.50;70.02;94255.97;5106450;28;20047;-41
2021/10/29 05:19:06;;;;;;;131.75;55.40;;;;;;;-0.53;69.92;94262.28;5106009;28;20044;-43
2021/10/29 05:21:32;;;;;;;115.38;46.45;;;;;;;-0.48;70.38;94261.69;5093357;28;20031;-40
2021/10/29 05:23:58;;;;;;;81.35;36.17;;;;;;;-0.37;70.47;94259.19;5093127;28;20100;-40
2021/10/29 05:26:23;;;;;;;84.38;34.25;;;;;;;-0.32;69.66;94255.13;5092643;28;20516;-40
2021/10/29 05:28:49;;;;;;;116.53;45.55;;;;;;;-0.28;69.79;94258.44;5092539;28;20031;-38
2021/10/29 05:31:14;;;;;;;69.43;31.60;;;;;;;-0.33;69.72;94259.81;5093005;28;20028;-38
2021/10/29 05:33:40;;;;;;;28.90;16.23;;;;;;;-0.34;70.02;94261.00;5092992;28;20026;-38
2021/10/29 05:36:05;;;;;;;43.03;19.83;;;;;;;-0.40;70.36;94254.72;5092622;28;20024;-38
2021/10/29 05:38:31;;;;;;;57.22;24.05;;;;;;;-0.32;70.61;94261.31;5092825;28;20027;-38
2021/10/29 05:40:58;;;;;;;117.88;43.58;;;;;;;-0.35;70.66;94267.66;5092989;28;20102;-38
2021/10/29 05:43:24;;;;;;;83.60;35.83;;;;;;;-0.41;71.15;94263.31;5092718;28;20032;-39
2021/10/29 05:45:49;;;;;;;76.75;31.33;;;;;;;-0.50;71.67;94268.78;5092552;28;20385;-39
2021/10/29 05:48:15;;;;;;;59.40;27.58;;;;;;;-0.50;71.71;94269.53;5091837;28;20024;-39
2021/10/29 05:50:47;;;;;;;64.55;30.08;;;;;;;-0.33;71.43;94269.91;5092096;28;20020;-38
2021/10/29 05:53:20;;;;;;;63.55;29.80;;;;;;;-0.19;71.00;94267.28;5092425;28;20027;-37
2021/10/29 05:55:45;;;;;;;89.95;41.95;;;;;;;-0.35;71.89;94262.25;5092231;28;20047;-38
2021/10/29 05:58:11;;;;;;;70.72;39.58;;;;;;;-0.25;72.42;94262.94;5092183;28;20012;-39
2021/10/29 06:00:36;;;;;;;65.15;36.60;;;;;;;-0.18;71.98;94263.38;5092088;28;20070;-38
2021/10/29 06:03:06;;;;;;;87.97;44.78;;;;;;;0.05;71.35;94263.81;5092067;28;20034;-38
2021/10/29 06:05:32;;;;;;;98.18;45.00;;;;;;;0.20;71.23;94276.25;5092013;28;20016;-38
2021/10/29 06:07:58;;;;;;;90.93;45.83;;;;;;;0.40;70.51;94278.41;5091961;28;20024;-37
2021/10/29 06:10:24;;;;;;;80.38;42.10;;;;;;;0.13;70.79;94235.16;5091966;28;20031;-36
2021/10/29 06:12:50;;;;;;;75.07;39.80;;;;;;;0.41;71.34;94282.63;5091893;28;20036;-37
2021/10/29 06:15:16;;;;;;;89.47;46.58;;;;;;;0.33;71.96;94279.50;5091862;28;20059;-38
2021/10/29 06:17:43;;;;;;;78.93;41.70;;;;;;;0.46;71.28;94271.13;5091652;28;20027;-37
2021/10/29 06:20:09;;;;;;;83.22;43.67;;;;;;;0.61;72.00;94280.81;5091519;28;20055;-37
2021/10/29 06:22:53;;;;;;;64.75;36.60;;;;;;;0.50;73.12;94291.47;5090762;28;20027;-37
2021/10/29 06:25:20;;;;;;;93.57;52.25;;;;;;;0.69;72.74;94283.94;5092146;28;20107;-36
2021/10/29 06:30:35;;;;;;;75.72;41.08;;;;;;;0.82;72.49;94259.97;5091985;28;20416;-37
2021/10/29 06:33:00;;;;;;;53.92;29.33;;;;;;;1.10;73.62;94279.50;5091186;28;20024;-36
2021/10/29 06:35:28;;;;;;;38.97;22.17;;;;;;;1.13;73.20;94262.25;5092120;28;20472;-36
2021/10/29 06:37:54;;;;;;;45.42;23.50;;;;;;;1.66;72.02;94284.69;5092009;28;20074;-38
2021/10/29 06:40:19;;;;;;;39.13;25.45;;;;;;;1.99;71.46;94289.88;5092102;28;20708;-37
2021/10/29 06:42:51;;;;;;;49.80;29.75;;;;;;;2.16;71.26;94277.25;5091646;28;20060;-36
2021/10/29 06:48:03;;;;;;;45.72;26.45;;;;;;;3.72;69.10;94277.75;5092057;28;20032;-38
2021/10/29 07:01:37;;;;;;;41.97;21.63;;;;;;;10.02;49.18;94267.78;5069164;28;20028;-38
2021/10/29 07:04:38;;;;;;;40.35;28.63;;;;;;;11.24;47.05;94263.59;5068783;28;20028;-38
2021/10/29 07:42:08;;;;;;;17.38;14.70;;;;;;;19.68;31.49;94251.28;5090109;28;20038;-39
2021/10/29 07:44:38;;;;;;;10.15;9.15;;;;;;;19.19;32.61;94263.00;5088876;28;20028;-39
2021/10/29 07:47:04;;;;;;;25.45;18.13;;;;;;;20.44;31.24;94251.81;5094796;28;20036;-39
2021/10/29 07:49:30;;;;;;;35.13;26.20;;;;;;;20.91;29.79;94250.91;5092712;28;20527;-39
2021/10/29 07:51:56;;;;;;;37.13;26.83;;;;;;;21.55;29.66;94248.94;5105349;28;20054;-40
2021/10/29 07:54:23;;;;;;;27.35;20.15;;;;;;;22.24;28.85;94245.72;5103833;28;20054;-39
2021/10/29 07:56:49;;;;;;;72.07;47.65;;;;;;;22.76;28.56;94249.00;5108699;28;20090;-40
2021/10/29 07:59:15;;;;;;;107.03;68.00;;;;;;;23.32;26.98;94241.16;5107851;28;20019;-40
2021/10/29 08:01:40;;;;;;;36.25;27.63;;;;;;;22.90;27.16;94249.16;5108181;28;20038;-40
2021/10/29 08:04:06;;;;;;;25.15;17.30;;;;;;;22.89;27.54;94247.69;5108500;28;20051;-40
2021/10/29 08:06:32;;;;;;;30.65;19.98;;;;;;;23.11;27.55;94240.56;5106724;28;20053;-39
2021/10/29 08:20:25;;;;;;;15.30;10.77;;;;;;;25.50;24.96;94234.31;5122655;27;20620;-46
2021/10/29 08:22:50;;;;;;;14.75;10.20;;;;;;;26.06;23.89;94233.56;5116980;27;20130;-47
2021/10/29 08:25:16;;;;;;;10.68;7.75;;;;;;;26.42;24.11;94231.78;5122546;27;20019;-45
2021/10/29 08:27:42;;;;;;;8.80;7.25;;;;;;;26.65;22.30;94208.06;5104664;28;20157;-44
2021/10/29 08:30:08;;;;;;;9.25;6.60;;;;;;;26.45;22.62;94226.94;5103861;28;20099;-44
2021/10/29 08:32:37;;;;;;;8.82;6.43;;;;;;;26.41;22.13;94229.56;5105593;28;20046;-44
2021/10/29 08:35:03;;;;;;;10.02;6.55;;;;;;;26.48;22.82;94220.75;5105475;28;20081;-45
2021/10/29 08:37:31;;;;;;;8.70;5.85;;;;;;;25.75;23.16;94218.56;5105786;28;20718;-46
2021/10/29 08:39:57;;;;;;;7.87;5.43;;;;;;;25.69;23.32;94218.22;5105425;28;20020;-44
2021/10/29 08:42:23;;;;;;;5.68;5.10;;;;;;;25.06;23.80;94222.75;5105202;28;20437;-45
2021/10/29 08:44:49;;;;;;;7.80;5.97;;;;;;;26.04;22.59;94222.13;5085282;28;20115;-44
2021/10/29 08:47:20;;;;;;;8.25;5.10;;;;;;;25.71;22.24;94218.34;5085318;28;20048;-45
2021/10/29 08:49:47;;;;;;;7.05;4.95;;;;;;;24.42;23.92;94223.53;5085174;28;20032;-44
2021/10/29 08:52:16;;;;;;;12.07;6.55;;;;;;;24.07;25.59;94223.72;5084948;28;20412;-44
2021/10/29 08:54:42;;;;;;;14.75;6.65;;;;;;;25.58;24.14;94217.72;5084677;28;20035;-45
2021/10/29 08:57:08;;;;;;;6.40;5.47;;;;;;;26.17;22.72;94212.16;5084735;28;20417;-43
2021/10/29 08:59:39;;;;;;;18.08;6.45;;;;;;;25.68;22.40;94211.88;5084635;28;20107;-43
2021/10/29 09:32:40;;;;;;;7.20;4.22;;;;;;;23.99;23.08;94199.94;5111448;28;20091;-45
2021/10/29 09:35:09;;;;;;;7.78;4.70;;;;;;;23.01;24.38;94203.34;5107882;28;20038;-39
2021/10/29 09:37:52;;;;;;;;;;;;;;;23.27;24.28;94200.03;5108393;28;20024;-41
2021/10/29 09:40:18;;;;;;;6.75;4.32;;;;;;;23.79;23.36;94190.34;5106397;28;20080;-45
2021/10/29 09:42:44;;;;;;;10.30;4.28;;;;;;;23.10;23.78;94197.59;5098744;28;20038;-44
2021/10/29 09:45:18;;;;;;;6.13;4.45;;;;;;;22.62;24.32;94205.94;5109371;28;20023;-45
2021/10/29 09:47:51;;;;;;;6.15;4.43;;;;;;;22.45;24.93;94152.78;5106256;28;20090;-46
2021/10/29 09:50:27;;;;;;;8.02;4.10;;;;;;;23.41;25.20;94179.69;5108730;28;20126;-46
2021/10/29 09:53:10;;;;;;;6.07;4.22;;;;;;;23.50;24.02;94190.78;5090519;28;20096;-44
2021/10/29 09:58:36;;;;;;;7.63;5.35;;;;;;;24.42;24.54;94164.28;5057014;28;20094;-44
2021/10/29 10:01:03;;;;;;;7.55;3.97;;;;;;;24.75;22.31;94175.22;5101651;28;20062;-45
2021/10/29 10:03:30;;;;;;;9.50;4.22;;;;;;;24.96;21.97;94180.56;5110484;28;20023;-45
2021/10/29 10:05:56;;;;;;;6.85;4.60;;;;;;;24.88;21.83;94177.34;5110285;28;20057;-45
2021/10/29 10:08:27;;;;;;;5.07;4.03;;;;;;;25.15;22.89;94157.53;5110771;28;20102;-44
2021/10/29 10:10:54;;;;;;;4.85;4.10;;;;;;;25.52;21.38;94162.97;5106413;27;20111;-44
2021/10/29 10:13:20;;;;;;;4.47;3.63;;;;;;;24.47;21.76;94165.22;5103609;28;20423;-47
2021/10/29 10:15:50;;;;;;;7.63;5.30;;;;;;;23.39;23.77;94154.91;5089966;28;20027;-43
2021/10/29 10:18:18;;;;;;;8.10;4.90;;;;;;;22.53;24.39;94154.00;5074819;28;20059;-43
2021/10/29 10:20:44;;;;;;;6.75;4.18;;;;;;;22.98;24.75;94154.63;5069880;28;20528;-45
2021/10/29 10:23:13;;;;;;;6.32;4.10;;;;;;;22.89;24.10;94160.41;5069688;28;20107;-43
2021/10/29 10:26:14;;;;;;;;;;;;;;;22.48;24.64;94157.91;5068988;28;20032;-44
2021/10/29 10:29:15;;;;;;;5.25;3.97;;;;;;;22.63;25.66;94151.81;5066185;28;19912;-46
2021/10/29 10:43:05;;;;;;;6.18;3.72;;;;;;;23.21;24.57;94139.75;5070797;28;20037;-44
2021/10/29 10:48:31;;;;;;;4.20;3.80;;;;;;;23.35;23.46;94137.78;5089324;28;20039;-43
2021/10/29 10:58:17;;;;;;;5.22;3.70;;;;;;;24.00;23.39;94139.34;5103376;28;20428;-45
2021/10/29 11:11:00;;;;;;;6.28;4.15;;;;;;;23.03;24.41;94127.41;5096126;28;20498;-43
2021/10/29 11:13:46;;;;;;;4.25;3.20;;;;;;;23.49;23.66;94123.78;5088674;28;20034;-44
2021/10/29 11:16:17;;;;;;;4.53;3.35;;;;;;;23.34;23.50;94122.97;5069528;28;20034;-43
2021/10/29 11:18:56;;;;;;;4.43;3.33;;;;;;;23.43;23.47;94120.63;5088436;28;20051;-46
2021/10/29 11:21:35;;;;;;;4.55;3.20;;;;;;;23.30;24.53;94105.06;5089037;28;20036;-44
2021/10/29 11:24:04;;;;;;;4.50;3.45;;;;;;;22.99;23.51;94102.59;5090820;28;20038;-43
2021/10/29 11:26:33;;;;;;;6.30;3.78;;;;;;;22.63;23.75;94114.50;5097574;28;20427;-43
2021/10/29 11:29:01;;;;;;;4.50;3.85;;;;;;;22.20;25.73;94099.91;5085243;28;20480;-44
2021/10/29 11:31:53;;;;;;;8.05;6.57;;;;;;;21.87;25.27;94110.50;5088586;28;20043;-42
2021/10/29 11:34:18;;;;;;;6.65;3.38;;;;;;;22.16;24.81;94098.91;5088214;28;20489;-43
2021/10/29 11:36:49;;;;;;;6.95;3.67;;;;;;;22.17;24.88;94097.59;5088456;28;20043;-44
2021/10/29 11:39:16;;;;;;;7.57;3.55;;;;;;;21.62;25.16;94099.03;5087369;28;20448;-44
2021/10/29 11:41:46;;;;;;;4.47;3.67;;;;;;;21.87;24.73;94094.34;5093529;28;20035;-44
2021/10/29 11:44:16;;;;;;;6.78;3.30;;;;;;;21.51;25.43;94099.72;5107031;28;20036;-43
2021/10/29 11:46:43;;;;;;;4.97;3.60;;;;;;;21.67;25.97;94097.97;5105832;28;20552;-45
2021/10/29 11:49:11;;;;;;;4.88;3.90;;;;;;;21.81;24.71;94099.56;5088387;28;20023;-45
2021/10/29 11:51:38;;;;;;;5.85;5.25;;;;;;;21.61;25.66;94094.78;5087189;28;20039;-43
2021/10/29 11:56:46;;;;;;;6.28;3.55;;;;;;;21.61;25.44;94087.06;5088269;28;20039;-46
2021/10/29 12:09:40;;;;;;;7.28;3.60;;;;;;;19.78;27.54;94076.81;5088402;28;20032;-43
2021/10/29 12:12:10;;;;;;;3.88;3.25;;;;;;;19.60;28.19;94084.69;5088412;28;20047;-42
2021/10/29 12:14:37;;;;;;;4.25;3.30;;;;;;;19.59;27.88;94078.38;5088314;28;20032;-43
2021/10/29 12:17:23;;;;;;;6.78;3.10;;;;;;;19.52;28.40;94084.88;5084145;28;20062;-44
2021/10/29 12:19:53;;;;;;;6.70;3.70;;;;;;;19.61;28.05;94077.75;5067859;28;20072;-47
2021/10/29 12:24:59;;;;;;;4.53;3.72;;;;;;;19.10;29.10;94076.19;5067544;28;20036;-45
2021/10/29 12:27:33;;;;;;;9.05;4.07;;;;;;;19.32;29.13;94074.97;5067859;28;20113;-45
2021/10/29 12:39:18;;;;;;;4.90;4.03;;;;;;;18.88;29.52;94069.69;5068840;28;20039;-45
2021/10/29 13:03:06;;;;;;;5.95;3.53;;;;;;;17.27;32.11;94085.28;5101390;28;20043;-42
2021/10/29 13:05:53;;;;;;;5.75;3.20;;;;;;;17.01;31.97;94071.28;5093923;28;20030;-44
2021/10/29 13:08:20;;;;;;;4.57;3.80;;;;;;;16.96;32.25;94052.75;5093377;28;20035;-42
2021/10/29 13:10:48;;;;;;;3.40;3.10;;;;;;;16.91;32.25;94040.56;5093492;28;20101;-42
2021/10/29 13:13:22;;;;;;;3.78;3.20;;;;;;;16.93;31.98;94076.22;5091928;28;20055;-41
2021/10/29 13:15:49;;;;;;;5.38;3.28;;;;;;;16.83;32.39;94070.56;5093465;28;20031;-45
2021/10/29 13:18:20;;;;;;;6.13;3.20;;;;;;;16.78;32.29;94074.34;5078874;28;20107;-42
2021/10/29 13:28:25;;;;;;;5.97;3.22;;;;;;;16.57;32.51;94068.44;5073267;28;20056;-41
2021/10/29 13:52:56;;;;;;;4.03;2.60;;;;;;;16.18;32.11;94058.19;5072418;28;20120;-42
2021/10/29 13:58:32;;;;;;;2.80;2.50;;;;;;;16.04;31.70;94060.56;5021200;28;20040;-43
2021/10/29 14:30:29;;;;;;;3.80;2.42;;;;;;;15.11;31.62;94082.47;5072154;28;20039;-42
2021/10/29 14:35:31;;;;;;;4.43;2.40;;;;;;;14.82;32.11;94084.06;5071963;28;20540;-43
2021/10/29 14:38:16;;;;;;;2.30;2.10;;;;;;;14.84;32.78;94079.44;5071874;28;20077;-43
2021/10/29 14:40:51;;;;;;;8.85;2.72;;;;;;;14.79;32.58;94080.38;5071596;28;20497;-42
2021/10/29 14:43:24;;;;;;;3.30;2.10;;;;;;;14.70;32.21;94077.44;5071729;28;20085;-42
2021/10/29 15:07:24;;;;;;;7.68;4.28;;;;;;;13.54;36.19;94082.88;5071273;28;20032;-42
2021/10/29 15:44:05;;;;;;;8.48;3.28;;;;;;;12.37;40.21;94090.38;5091082;28;20035;-40
2021/10/29 15:49:38;;;;;;;3.05;2.47;;;;;;;12.10;40.67;94081.56;5078020;28;20096;-41
2021/10/29 15:52:12;;;;;;;4.95;2.78;;;;;;;12.14;40.89;94095.78;5090520;28;20158;-41
2021/10/29 15:54:42;;;;;;;4.35;2.75;;;;;;;12.03;40.88;94096.06;5090511;28;20484;-41
2021/10/29 15:57:08;;;;;;;3.58;2.75;;;;;;;11.87;41.85;94099.25;5090391;28;20083;-44
2021/10/29 16:18:08;;;;;;;17.70;12.35;;;;;;;10.79;47.30;94099.97;5090048;28;20028;-41
2021/10/29 16:20:34;;;;;;;20.52;13.23;;;;;;;10.26;47.99;94078.00;5090312;28;20409;-41
2021/10/29 16:23:02;;;;;;;20.40;13.80;;;;;;;10.50;48.07;94102.56;5090209;28;20028;-41
2021/10/29 16:25:32;;;;;;;17.20;12.45;;;;;;;10.47;49.01;94109.19;5090412;28;20471;-43
2021/10/29 16:28:00;;;;;;;23.30;11.98;;;;;;;10.26;49.35;94110.34;5090385;28;20127;-41
2021/10/29 16:30:28;;;;;;;22.83;14.63;;;;;;;10.09;50.23;94115.41;5092221;28;20036;-41
2021/10/29 16:35:38;;;;;;;17.88;11.82;;;;;;;10.24;49.78;94105.38;5094308;28;20180;-41
2021/10/29 16:38:05;;;;;;;16.92;11.23;;;;;;;10.09;49.77;94118.91;5094271;28;20032;-41
2021/10/29 16:40:31;;;;;;;19.10;13.13;;;;;;;9.77;50.72;94120.97;5094058;28;20462;-41
2021/10/29 16:42:57;;;;;;;20.02;14.25;;;;;;;9.55;51.16;94124.13;5094423;28;20024;-40
2021/10/29 16:45:23;;;;;;;19.50;14.40;;;;;;;9.18;52.17;94117.41;5094046;28;20027;-42
2021/10/29 16:47:49;;;;;;;24.95;13.77;;;;;;;9.29;52.12;94126.78;5093793;28;20044;-41
2021/10/29 16:50:16;;;;;;;20.48;13.48;;;;;;;9.23;52.53;94124.09;5093726;28;20027;-41
2021/10/29 16:52:43;;;;;;;18.58;11.73;;;;;;;9.01;53.10;94125.16;5094110;28;20039;-41
2021/10/29 16:55:09;;;;;;;17.63;9.80;;;;;;;8.85;53.01;94111.63;5094156;28;20424;-41
2021/10/29 16:57:35;;;;;;;20.50;13.43;;;;;;;8.81;53.59;94128.47;5094084;28;20028;-41
2021/10/29 17:00:03;;;;;;;15.27;10.52;;;;;;;8.80;53.56;94131.72;5094036;28;20408;-41
2021/10/29 17:02:29;;;;;;;13.30;8.93;;;;;;;8.55;54.36;94133.81;5093669;28;20103;-42
2021/10/29 17:04:55;;;;;;;17.42;9.10;;;;;;;8.45;54.97;94142.91;5093969;28;20028;-41
2021/10/29 17:07:21;;;;;;;15.15;9.45;;;;;;;8.21;55.99;94144.41;5093576;28;20394;-42
2021/10/29 17:09:49;;;;;;;18.08;10.80;;;;;;;8.21;55.93;94144.41;5093748;28;20099;-42
2021/10/29 17:12:15;;;;;;;19.60;8.80;;;;;;;8.16;56.13;94141.72;5093874;28;20553;-42